createdAt,value
2017-02-17T00:00:12.825Z,76.78
2017-02-17T00:01:25.419Z,76.68
2017-02-17T00:02:38.558Z,76.78
2017-02-17T00:03:51.725Z,75.42
2017-02-17T00:05:04.305Z,73.58
2017-02-17T00:07:58.793Z,69.41
2017-02-17T00:09:11.371Z,68.15
2017-02-17T00:10:24.537Z,67.85
2017-02-17T00:11:37.695Z,66.79
2017-02-17T00:12:50.835Z,66.79
2017-02-17T00:14:04.184Z,66.99
2017-02-17T00:15:16.778Z,66.79
2017-02-17T00:16:29.940Z,67.27
2017-02-17T00:17:43.076Z,67.18
2017-02-17T00:18:55.864Z,66.6
2017-02-17T00:20:09.007Z,66.89
2017-02-17T00:21:21.579Z,66.6
2017-02-17T00:22:48.755Z,66.69
2017-02-17T00:24:02.105Z,65.92
2017-02-17T00:25:14.678Z,65.92
2017-02-17T00:26:41.830Z,66.02
2017-02-17T00:28:08.996Z,66.02
2017-02-17T00:29:21.595Z,66.5
2017-02-17T00:30:34.738Z,66.69
2017-02-17T00:31:47.889Z,66.69
2017-02-17T00:33:01.047Z,66.3
2017-02-17T00:34:14.190Z,66.69
2017-02-17T00:35:27.538Z,66.69
2017-02-17T00:36:40.679Z,66.5
2017-02-17T00:37:53.841Z,66.5
2017-02-17T00:39:06.982Z,66.69
2017-02-17T00:40:19.769Z,66.89
2017-02-17T00:41:32.914Z,67.37
2017-02-17T00:42:46.085Z,67.57
2017-02-17T00:43:59.218Z,67.57
2017-02-17T00:45:11.855Z,68.24
2017-02-17T00:46:23.722Z,68.15
2017-02-17T00:47:37.003Z,68.34
2017-02-17T00:48:50.296Z,68.44
2017-02-17T00:50:03.611Z,68.82
2017-02-17T00:51:15.761Z,68.63
2017-02-17T00:52:29.039Z,68.79
2017-02-17T00:53:41.744Z,69.27
2017-02-17T00:54:55.024Z,69.6
2017-02-17T00:56:08.337Z,69.08
2017-02-17T00:57:20.221Z,68.79
2017-02-17T00:58:33.527Z,69.27
2017-02-17T00:59:46.800Z,69.37
2017-02-17T01:01:00.077Z,69.47
2017-02-17T01:02:13.547Z,69.57
2017-02-17T01:03:26.274Z,69.47
2017-02-17T01:04:39.554Z,69.47
2017-02-17T01:05:52.866Z,69.76
2017-02-17T01:07:06.141Z,69.76
2017-02-17T01:08:19.622Z,70.15
2017-02-17T01:09:32.903Z,69.85
2017-02-17T01:10:46.175Z,70.25
2017-02-17T01:11:59.508Z,70.05
2017-02-17T01:13:12.787Z,70.44
2017-02-17T01:14:25.500Z,70.63
2017-02-17T01:15:38.809Z,70.73
2017-02-17T01:16:52.080Z,71.41
2017-02-17T01:18:05.369Z,71.02
2017-02-17T01:19:32.841Z,71.22
2017-02-17T01:20:46.142Z,71.22
2017-02-17T01:21:59.423Z,71.31
2017-02-17T01:23:12.153Z,71.22
2017-02-17T01:24:25.446Z,71.12
2017-02-17T01:25:38.729Z,71.02
2017-02-17T01:26:52.000Z,71.41
2017-02-17T01:28:05.315Z,70.54
2017-02-17T01:29:17.460Z,70.83
2017-02-17T01:30:30.335Z,71.41
2017-02-17T01:31:43.502Z,71.22
2017-02-17T01:32:56.658Z,70.92
2017-02-17T01:34:09.797Z,71.41
2017-02-17T01:35:22.937Z,71.6
2017-02-17T01:36:36.072Z,71.89
2017-02-17T01:37:48.648Z,71.6
2017-02-17T01:39:01.818Z,71.8
2017-02-17T01:40:14.400Z,72.83
2017-02-17T01:41:27.868Z,72.63
2017-02-17T01:42:41.032Z,73.15
2017-02-17T01:43:53.616Z,73.54
2017-02-17T01:45:20.196Z,74.18
2017-02-17T01:46:33.549Z,73.93
2017-02-17T01:47:46.720Z,73.93
2017-02-17T01:48:59.854Z,74.08
2017-02-17T01:50:13.003Z,74.32
2017-02-17T01:51:25.620Z,74.51
2017-02-17T01:52:38.762Z,74.7
2017-02-17T01:53:51.931Z,75.48
2017-02-17T01:55:05.082Z,75.57
2017-02-17T01:56:17.676Z,75.38
2017-02-17T01:57:30.273Z,75.77
2017-02-17T01:58:43.439Z,76.45
2017-02-17T01:59:56.574Z,77.03
2017-02-17T02:01:09.723Z,77.57
2017-02-17T02:02:22.607Z,77.96
2017-02-17T02:03:35.766Z,77.96
2017-02-17T02:04:48.901Z,77.76
2017-02-17T02:06:02.047Z,77.8
2017-02-17T02:07:14.084Z,77.67
2017-02-17T02:08:27.523Z,77.8
2017-02-17T02:09:40.667Z,77.67
2017-02-17T02:10:53.825Z,77.47
2017-02-17T02:12:06.425Z,78
2017-02-17T02:13:33.772Z,78.05
2017-02-17T02:14:46.913Z,78.44
2017-02-17T02:16:00.046Z,78.15
2017-02-17T02:17:13.187Z,77.96
2017-02-17T02:18:25.774Z,78.54
2017-02-17T02:19:52.928Z,79.02
2017-02-17T02:21:06.075Z,79.02
2017-02-17T02:22:19.253Z,78.64
2017-02-17T02:23:32.596Z,79.02
2017-02-17T02:24:45.204Z,78.64
2017-02-17T02:26:12.343Z,79.02
2017-02-17T02:27:24.394Z,78.64
2017-02-17T02:28:37.528Z,78.64
2017-02-17T02:29:50.690Z,79.12
2017-02-17T02:31:03.838Z,78.44
2017-02-17T02:32:15.874Z,77.47
2017-02-17T02:33:29.034Z,77.19
2017-02-17T02:34:41.614Z,76.7
2017-02-17T02:35:54.769Z,76.79
2017-02-17T02:37:07.928Z,76.7
2017-02-17T02:38:35.069Z,76.89
2017-02-17T02:41:15.579Z,77.86
2017-02-17T02:42:28.720Z,78.15
2017-02-17T02:43:42.080Z,78.05
2017-02-17T02:44:54.693Z,77.57
2017-02-17T02:46:06.731Z,77.34
2017-02-17T02:47:19.888Z,78.05
2017-02-17T02:48:33.023Z,77.92
2017-02-17T02:49:46.359Z,77.53
2017-02-17T02:50:59.503Z,78.41
2017-02-17T02:52:12.646Z,78.02
2017-02-17T02:53:25.786Z,78.41
2017-02-17T02:54:38.911Z,77.34
2017-02-17T02:55:51.512Z,77.63
2017-02-17T02:57:04.677Z,80.15
2017-02-17T02:58:17.811Z,80.24
2017-02-17T02:59:30.408Z,80.82
2017-02-17T03:00:43.810Z,81.12
2017-02-17T03:01:57.103Z,81.5
2017-02-17T03:03:24.374Z,81.7
2017-02-17T03:04:37.081Z,81.65
2017-02-17T03:05:50.365Z,81.89
2017-02-17T03:07:03.645Z,81.85
2017-02-17T03:08:15.817Z,80.11
2017-02-17T03:09:28.547Z,79.43
2017-02-17T03:10:41.834Z,80.3
2017-02-17T03:11:55.115Z,80.59
2017-02-17T03:13:08.412Z,79.62
2017-02-17T03:14:21.123Z,79.52
2017-02-17T03:15:34.401Z,79.24
2017-02-17T03:16:47.684Z,78.17
2017-02-17T03:18:00.958Z,77.69
2017-02-17T03:19:14.239Z,77.98
2017-02-17T03:20:27.541Z,77.88
2017-02-17T03:21:40.832Z,77.73
2017-02-17T03:22:54.315Z,77.98
2017-02-17T03:24:07.603Z,77.3
2017-02-17T03:25:20.894Z,77.73
2017-02-17T03:26:34.173Z,77.59
2017-02-17T03:27:47.650Z,77.69
2017-02-17T03:29:00.372Z,77.59
2017-02-17T03:30:13.652Z,77.98
2017-02-17T03:31:26.934Z,77.98
2017-02-17T03:32:40.222Z,77.88
2017-02-17T03:33:53.699Z,77.69
2017-02-17T03:35:06.989Z,77.59
2017-02-17T03:36:20.290Z,77.69
2017-02-17T03:37:33.587Z,77.59
2017-02-17T03:38:46.861Z,77.59
2017-02-17T03:40:00.155Z,77.69
2017-02-17T03:41:13.487Z,77.59
2017-02-17T03:42:26.755Z,76.72
2017-02-17T03:43:40.039Z,77.14
2017-02-17T03:44:53.477Z,77.4
2017-02-17T03:46:06.620Z,77.5
2017-02-17T03:47:19.193Z,77.4
2017-02-17T03:48:31.781Z,77.5
2017-02-17T03:49:45.346Z,77.4
2017-02-17T03:52:25.646Z,77.2
2017-02-17T03:53:38.796Z,77.59
2017-02-17T03:54:52.145Z,77.59
2017-02-17T03:56:05.299Z,77.98
2017-02-17T03:57:17.914Z,78.17
2017-02-17T03:58:31.065Z,78.75
2017-02-17T03:59:58.252Z,79.24
2017-02-17T04:01:11.397Z,79.04
2017-02-17T04:02:22.871Z,79.33
2017-02-17T04:03:36.006Z,78.85
2017-02-17T04:04:49.162Z,79.62
2017-02-17T04:06:02.495Z,78.94
2017-02-17T04:07:13.965Z,78.46
2017-02-17T04:08:27.109Z,79.62
2017-02-17T04:09:40.257Z,79.62
2017-02-17T04:10:53.412Z,79.43
2017-02-17T04:12:05.983Z,79.43
2017-02-17T04:13:19.131Z,79.62
2017-02-17T04:14:31.181Z,79.72
2017-02-17T04:15:44.336Z,80.11
2017-02-17T04:16:57.698Z,80.01
2017-02-17T04:18:10.298Z,80.4
2017-02-17T04:19:22.881Z,80.49
2017-02-17T04:20:36.028Z,80.59
2017-02-17T04:21:49.377Z,80.98
2017-02-17T04:23:02.571Z,81.62
2017-02-17T04:24:15.730Z,81.52
2017-02-17T04:25:28.915Z,81.46
2017-02-17T04:26:42.058Z,81.56
2017-02-17T04:27:55.196Z,81.65
2017-02-17T04:29:08.352Z,81.95
2017-02-17T04:30:21.531Z,81.75
2017-02-17T04:31:34.805Z,81.65
2017-02-17T04:32:48.106Z,82.14
2017-02-17T04:34:01.385Z,82.2
2017-02-17T04:35:14.666Z,82
2017-02-17T04:36:27.969Z,82
2017-02-17T04:37:40.697Z,82.04
2017-02-17T04:38:54.277Z,82.04
2017-02-17T04:40:07.569Z,82.87
2017-02-17T04:41:20.865Z,82.62
2017-02-17T04:42:34.136Z,82.2
2017-02-17T04:44:01.608Z,82.78
2017-02-17T04:45:14.876Z,82.58
2017-02-17T04:46:42.120Z,83.16
2017-02-17T04:49:22.954Z,83.55
2017-02-17T04:50:35.662Z,83.06
2017-02-17T04:51:48.950Z,83.36
2017-02-17T04:53:02.235Z,84.03
2017-02-17T04:54:14.960Z,83.74
2017-02-17T04:55:28.448Z,84.32
2017-02-17T04:56:41.737Z,84.22
2017-02-17T04:57:55.010Z,84.52
2017-02-17T04:59:08.281Z,84.71
2017-02-17T05:00:20.439Z,84.22
2017-02-17T05:01:33.732Z,84.42
2017-02-17T05:02:47.008Z,84.42
2017-02-17T05:04:00.287Z,84.32
2017-02-17T05:05:13.573Z,84.8
2017-02-17T05:06:27.159Z,84.42
2017-02-17T05:07:40.488Z,84.42
2017-02-17T05:08:53.793Z,84.22
2017-02-17T05:10:20.791Z,84.38
2017-02-17T05:11:34.071Z,84.71
2017-02-17T05:13:00.755Z,84.9
2017-02-17T05:14:14.049Z,85
2017-02-17T05:15:27.317Z,85.19
2017-02-17T05:16:40.608Z,84.8
2017-02-17T05:17:53.889Z,84.9
2017-02-17T05:19:07.166Z,84.71
2017-02-17T05:20:19.869Z,84.71
2017-02-17T05:21:32.886Z,85
2017-02-17T05:22:45.622Z,84.52
2017-02-17T05:23:58.914Z,84.61
2017-02-17T05:25:11.626Z,84.71
2017-02-17T05:26:24.340Z,84.52
2017-02-17T05:27:51.604Z,84.71
2017-02-17T05:29:04.891Z,84.52
2017-02-17T05:30:17.602Z,84.61
2017-02-17T05:31:31.079Z,84.71
2017-02-17T05:34:11.026Z,85.19
2017-02-17T05:35:24.289Z,85.1
2017-02-17T05:36:37.776Z,85.48
2017-02-17T05:37:51.088Z,85.58
2017-02-17T05:39:04.364Z,86.55
2017-02-17T05:40:17.100Z,86.41
2017-02-17T05:41:29.821Z,86.99
2017-02-17T05:42:43.088Z,86.69
2017-02-17T05:43:56.371Z,87.08
2017-02-17T05:45:09.703Z,86.99
2017-02-17T05:46:22.983Z,87.08
2017-02-17T05:47:36.041Z,87.27
2017-02-17T05:48:49.356Z,87.18
2017-02-17T05:50:02.636Z,86.99
2017-02-17T05:51:15.338Z,86.69
2017-02-17T05:52:28.618Z,86.79
2017-02-17T05:53:42.200Z,86.51
2017-02-17T05:54:55.509Z,86.51
2017-02-17T05:56:08.783Z,86.51
2017-02-17T05:57:22.071Z,86.31
2017-02-17T05:58:49.538Z,86.89
2017-02-17T06:00:02.771Z,86.79
2017-02-17T06:01:15.926Z,86.69
2017-02-17T06:02:29.070Z,86.6
2017-02-17T06:03:41.854Z,86.69
2017-02-17T06:04:55.033Z,86.69
2017-02-17T06:06:08.198Z,86.11
2017-02-17T06:07:21.351Z,86.51
2017-02-17T06:08:34.519Z,85.73
2017-02-17T06:09:47.964Z,86.21
2017-02-17T06:11:01.094Z,86.55
2017-02-17T06:12:14.236Z,86.02
2017-02-17T06:13:27.370Z,86.31
2017-02-17T06:14:40.816Z,86.21
2017-02-17T06:15:53.967Z,86.21
2017-02-17T06:17:07.110Z,86.45
2017-02-17T06:18:20.265Z,86.25
2017-02-17T06:19:32.846Z,86.11
2017-02-17T06:20:46.204Z,86.65
2017-02-17T06:21:59.342Z,86.79
2017-02-17T06:23:11.942Z,86.79
2017-02-17T06:24:24.514Z,86.25
2017-02-17T06:25:37.093Z,86.89
2017-02-17T06:26:50.228Z,87.18
2017-02-17T06:28:03.393Z,87.37
2017-02-17T06:29:16.539Z,87.66
2017-02-17T06:30:29.120Z,87.85
2017-02-17T06:33:23.644Z,89.17
2017-02-17T06:34:36.281Z,88.87
2017-02-17T06:35:49.170Z,88.68
2017-02-17T06:37:02.329Z,88.97
2017-02-17T06:38:15.495Z,88.87
2017-02-17T06:39:28.651Z,88.63
2017-02-17T06:40:41.782Z,88.43
2017-02-17T06:41:55.123Z,88.24
2017-02-17T06:43:08.270Z,88.78
2017-02-17T06:44:35.422Z,88.2
2017-02-17T06:45:48.585Z,88.59
2017-02-17T06:47:01.730Z,88.49
2017-02-17T06:48:14.861Z,88.59
2017-02-17T06:49:28.008Z,87.71
2017-02-17T06:50:40.584Z,88.43
2017-02-17T06:51:54.033Z,88.43
2017-02-17T06:53:07.203Z,88.43
2017-02-17T06:54:20.356Z,88.53
2017-02-17T06:55:33.538Z,88.73
2017-02-17T06:56:46.878Z,88.82
2017-02-17T06:58:00.059Z,88.34
2017-02-17T06:59:13.203Z,88.73
2017-02-17T07:00:25.772Z,87.85
2017-02-17T07:01:38.934Z,87.76
2017-02-17T07:02:52.275Z,88.53
2017-02-17T07:04:05.431Z,88.34
2017-02-17T07:05:18.563Z,88.34
2017-02-17T07:06:31.719Z,88.82
2017-02-17T07:07:45.114Z,88.92
2017-02-17T07:08:58.295Z,89.11
2017-02-17T07:10:11.434Z,89.11
2017-02-17T07:11:24.571Z,89.11
2017-02-17T07:12:37.163Z,89.11
2017-02-17T07:13:50.555Z,89.31
2017-02-17T07:15:03.696Z,89.21
2017-02-17T07:16:15.733Z,89.11
2017-02-17T07:17:28.899Z,89.69
2017-02-17T07:18:42.347Z,89.59
2017-02-17T07:19:54.922Z,89.69
2017-02-17T07:21:08.055Z,89.69
2017-02-17T07:22:20.647Z,89.69
2017-02-17T07:23:33.802Z,90.27
2017-02-17T07:24:47.244Z,90.27
2017-02-17T07:25:59.847Z,90.66
2017-02-17T07:27:11.340Z,90.56
2017-02-17T07:28:23.922Z,91.67
2017-02-17T07:29:37.251Z,91.49
2017-02-17T07:30:50.382Z,91.29
2017-02-17T07:32:03.519Z,91.67
2017-02-17T07:33:16.096Z,91.49
2017-02-17T07:34:29.233Z,91.58
2017-02-17T07:35:42.577Z,91.29
2017-02-17T07:36:55.720Z,91.09
2017-02-17T07:38:22.861Z,91.19
2017-02-17T07:39:36.008Z,91.67
2017-02-17T07:40:49.358Z,91.58
2017-02-17T07:42:02.515Z,90.91
2017-02-17T07:43:15.115Z,90.81
2017-02-17T07:44:28.252Z,90.71
2017-02-17T07:45:41.696Z,90.71
2017-02-17T07:46:54.848Z,91
2017-02-17T07:48:07.994Z,90.52
2017-02-17T07:49:21.168Z,90.81
2017-02-17T07:50:34.310Z,90.71
2017-02-17T07:51:47.090Z,90.81
2017-02-17T07:53:00.224Z,90.52
2017-02-17T07:54:13.376Z,90.52
2017-02-17T07:55:26.543Z,90.71
2017-02-17T07:56:39.388Z,91.09
2017-02-17T07:57:52.549Z,91.19
2017-02-17T07:59:05.697Z,90.91
2017-02-17T08:01:46.250Z,90.13
2017-02-17T08:02:59.402Z,90.61
2017-02-17T08:04:12.565Z,90.47
2017-02-17T08:05:25.701Z,90.33
2017-02-17T08:06:38.282Z,90.03
2017-02-17T08:07:51.678Z,89.98
2017-02-17T08:09:04.834Z,90.23
2017-02-17T08:10:17.968Z,90.61
2017-02-17T08:11:31.126Z,90.81
2017-02-17T08:12:44.502Z,91.33
2017-02-17T08:13:57.648Z,91.58
2017-02-17T08:15:10.273Z,91.29
2017-02-17T08:16:23.000Z,91.87
2017-02-17T08:17:36.274Z,92.83
2017-02-17T08:18:49.861Z,92.65
2017-02-17T08:20:02.576Z,92.65
2017-02-17T08:21:14.735Z,92.65
2017-02-17T08:22:27.442Z,92.55
2017-02-17T08:23:40.914Z,92.65
2017-02-17T08:24:54.216Z,92.45
2017-02-17T08:26:07.489Z,92.74
2017-02-17T08:27:20.757Z,92.16
2017-02-17T08:28:34.033Z,92.74
2017-02-17T08:29:47.052Z,92.65
2017-02-17T08:31:00.332Z,92.74
2017-02-17T08:32:13.607Z,92.45
2017-02-17T08:33:26.922Z,92.5
2017-02-17T08:34:40.397Z,92.41
2017-02-17T08:35:53.688Z,92.07
2017-02-17T08:37:06.997Z,92.25
2017-02-17T08:38:20.292Z,92.83
2017-02-17T08:39:32.997Z,92.6
2017-02-17T08:40:45.907Z,93.27
2017-02-17T08:41:59.179Z,92.79
2017-02-17T08:43:11.888Z,92.98
2017-02-17T08:44:25.181Z,92.69
2017-02-17T08:45:38.713Z,92.98
2017-02-17T08:46:51.985Z,93.08
2017-02-17T08:48:05.273Z,92.83
2017-02-17T08:49:17.975Z,92.69
2017-02-17T08:50:30.707Z,92.98
2017-02-17T08:51:44.291Z,92.41
2017-02-17T08:52:57.563Z,92.93
2017-02-17T08:54:10.266Z,92.35
2017-02-17T08:55:23.546Z,92.07
2017-02-17T08:56:36.564Z,92.45
2017-02-17T08:57:49.842Z,92.74
2017-02-17T08:59:03.133Z,93.13
2017-02-17T09:00:16.361Z,93.41
2017-02-17T09:01:29.497Z,93.32
2017-02-17T09:02:42.288Z,92.65
2017-02-17T09:03:55.437Z,92.74
2017-02-17T09:05:08.604Z,92.65
2017-02-17T09:06:21.186Z,93.03
2017-02-17T09:07:34.650Z,93.51
2017-02-17T09:08:47.794Z,93.03
2017-02-17T09:10:00.933Z,93.13
2017-02-17T09:11:14.083Z,92.65
2017-02-17T09:12:27.208Z,92.31
2017-02-17T09:13:40.618Z,92.07
2017-02-17T09:14:53.768Z,92.07
2017-02-17T09:16:06.380Z,92.25
2017-02-17T09:17:19.516Z,92.25
2017-02-17T09:18:32.849Z,92.25
2017-02-17T09:19:45.992Z,92.07
2017-02-17T09:21:12.015Z,92.16
2017-02-17T09:22:24.608Z,92.45
2017-02-17T09:23:37.947Z,92.93
2017-02-17T09:24:51.104Z,92.45
2017-02-17T09:26:04.245Z,92.74
2017-02-17T09:27:31.389Z,93.13
2017-02-17T09:28:44.739Z,93.61
2017-02-17T09:29:57.894Z,93.51
2017-02-17T09:31:10.483Z,93.41
2017-02-17T09:32:22.512Z,93.32
2017-02-17T09:33:35.669Z,93.32
2017-02-17T09:34:49.006Z,93.51
2017-02-17T09:36:02.146Z,93.23
2017-02-17T09:37:14.731Z,93.51
2017-02-17T09:38:27.868Z,93.41
2017-02-17T09:39:41.259Z,93.32
2017-02-17T09:40:54.438Z,93.32
2017-02-17T09:42:07.589Z,93.13
2017-02-17T09:43:20.729Z,93.03
2017-02-17T09:44:33.900Z,92.16
2017-02-17T09:45:46.828Z,92.16
2017-02-17T09:48:27.373Z,91.97
2017-02-17T09:49:54.644Z,91.58
2017-02-17T09:51:07.927Z,90.91
2017-02-17T09:52:20.662Z,91
2017-02-17T09:53:32.803Z,90.91
2017-02-17T09:54:46.093Z,91.29
2017-02-17T09:55:58.474Z,90.95
2017-02-17T09:57:11.178Z,90.91
2017-02-17T09:58:24.454Z,90.91
2017-02-17T09:59:37.756Z,90.75
2017-02-17T10:01:05.227Z,90.85
2017-02-17T10:02:18.533Z,90.95
2017-02-17T10:03:31.806Z,90.56
2017-02-17T10:04:45.112Z,90.75
2017-02-17T10:05:58.419Z,90.47
2017-02-17T10:07:11.915Z,90.66
2017-02-17T10:08:25.201Z,89.11
2017-02-17T10:09:38.479Z,89.01
2017-02-17T10:10:51.773Z,88.92
2017-02-17T10:12:05.352Z,89.11
2017-02-17T10:13:18.070Z,89.4
2017-02-17T10:14:31.356Z,88.53
2017-02-17T10:15:44.660Z,88.34
2017-02-17T10:16:57.964Z,87.57
2017-02-17T10:18:11.458Z,87.76
2017-02-17T10:19:24.739Z,87.27
2017-02-17T10:20:38.033Z,87.03
2017-02-17T10:21:51.316Z,86.65
2017-02-17T10:23:04.892Z,86.16
2017-02-17T10:24:18.171Z,85.97
2017-02-17T10:25:31.451Z,85.58
2017-02-17T10:26:44.720Z,85.39
2017-02-17T10:27:57.425Z,84.9
2017-02-17T10:29:10.906Z,84.22
2017-02-17T10:30:38.117Z,84.52
2017-02-17T10:31:51.252Z,84.42
2017-02-17T10:33:04.598Z,83.84
2017-02-17T10:34:17.174Z,83.74
2017-02-17T10:35:30.314Z,83.26
2017-02-17T10:36:43.466Z,84.36
2017-02-17T10:37:56.613Z,84.56
2017-02-17T10:39:10.012Z,84.03
2017-02-17T10:40:23.149Z,83.3
2017-02-17T10:41:36.287Z,83.49
2017-02-17T10:42:49.440Z,82.62
2017-02-17T10:44:02.834Z,82.23
2017-02-17T10:45:15.422Z,82.14
2017-02-17T10:46:28.588Z,82.62
2017-02-17T10:47:41.728Z,82.33
2017-02-17T10:48:54.308Z,82.04
2017-02-17T10:50:21.756Z,82.43
2017-02-17T10:51:34.892Z,81.75
2017-02-17T10:52:47.481Z,81.56
2017-02-17T10:54:00.625Z,80.49
2017-02-17T10:55:14.076Z,80.92
2017-02-17T10:56:27.213Z,80.73
2017-02-17T10:57:40.350Z,80.54
2017-02-17T10:58:53.513Z,80.54
2017-02-17T11:00:06.151Z,79.85
2017-02-17T11:01:19.510Z,80.24
2017-02-17T11:02:32.669Z,79.37
2017-02-17T11:03:59.844Z,79.57
2017-02-17T11:06:40.276Z,77.86
2017-02-17T11:07:53.423Z,78.69
2017-02-17T11:09:06.666Z,78.69
2017-02-17T11:10:19.392Z,78.69
2017-02-17T11:11:32.413Z,78.15
2017-02-17T11:12:45.767Z,77.67
2017-02-17T11:13:59.079Z,77.86
2017-02-17T11:15:11.904Z,77.09
2017-02-17T11:16:24.774Z,76.6
2017-02-17T11:17:38.679Z,77.19
2017-02-17T11:18:52.185Z,76.7
2017-02-17T11:20:05.166Z,76.79
2017-02-17T11:21:17.643Z,77.09
2017-02-17T11:22:31.514Z,76.79
2017-02-17T11:23:45.125Z,76.06
2017-02-17T11:24:58.790Z,75.48
2017-02-17T11:26:12.433Z,75.28
2017-02-17T11:27:25.933Z,76.12
2017-02-17T11:28:39.453Z,75.96
2017-02-17T11:29:52.732Z,75.38
2017-02-17T11:31:06.015Z,75.77
2017-02-17T11:32:19.310Z,75.77
2017-02-17T11:33:32.580Z,75.48
2017-02-17T11:34:45.878Z,75.77
2017-02-17T11:35:59.150Z,74.7
2017-02-17T11:37:11.875Z,74.74
2017-02-17T11:38:25.148Z,74.16
2017-02-17T11:39:38.422Z,74.16
2017-02-17T11:40:51.708Z,73.67
2017-02-17T11:42:04.437Z,73.86
2017-02-17T11:43:17.723Z,73.67
2017-02-17T11:44:30.786Z,72.89
2017-02-17T11:45:44.060Z,73.86
2017-02-17T11:46:57.341Z,72.71
2017-02-17T11:48:10.626Z,72.99
2017-02-17T11:51:04.841Z,73.58
2017-02-17T11:52:18.146Z,72.61
2017-02-17T11:53:30.375Z,72.99
2017-02-17T11:54:44.198Z,72.83
2017-02-17T11:55:57.719Z,72.35
2017-02-17T11:57:10.667Z,71.96
2017-02-17T11:58:23.680Z,72.16
2017-02-17T11:59:36.628Z,72.16
2017-02-17T12:00:49.849Z,72.25
2017-02-17T12:02:02.444Z,71.67
2017-02-17T12:03:15.051Z,70.99
2017-02-17T12:04:27.072Z,70.21
2017-02-17T12:05:40.519Z,70.45
2017-02-17T12:06:53.681Z,70.35
2017-02-17T12:08:06.830Z,70.45
2017-02-17T12:09:19.977Z,70.25
2017-02-17T12:10:33.140Z,70.45
2017-02-17T12:11:46.614Z,69.86
2017-02-17T12:12:59.204Z,69.86
2017-02-17T12:14:11.229Z,69.48
2017-02-17T12:15:24.420Z,69.7
2017-02-17T12:16:37.396Z,69.28
2017-02-17T12:18:04.712Z,69.48
2017-02-17T12:19:18.001Z,69.9
2017-02-17T12:20:31.181Z,69.6
2017-02-17T12:22:26.589Z,69.6
2017-02-17T12:23:39.740Z,69.41
2017-02-17T12:24:52.897Z,68.54
2017-02-17T12:26:05.519Z,68.28
2017-02-17T12:27:18.706Z,67.7
2017-02-17T12:28:32.181Z,67.89
2017-02-17T12:29:45.367Z,66.72
2017-02-17T12:30:58.576Z,66.86
2017-02-17T12:32:11.221Z,66.76
2017-02-17T12:33:24.148Z,66.47
2017-02-17T12:34:37.489Z,65.82
2017-02-17T12:35:50.754Z,65.92
2017-02-17T12:37:03.574Z,64.1
2017-02-17T12:38:31.110Z,64
2017-02-17T12:39:44.567Z,63.42
2017-02-17T12:40:58.026Z,63.16
2017-02-17T12:42:11.434Z,62.9
2017-02-17T12:43:24.905Z,62.6
2017-02-17T12:44:37.899Z,61.73
2017-02-17T12:45:50.778Z,61.63
2017-02-17T12:47:18.098Z,60.46
2017-02-17T12:48:30.682Z,60.3
2017-02-17T12:49:44.208Z,59.45
2017-02-17T12:50:57.358Z,59.35
2017-02-17T12:52:10.513Z,58.67
2017-02-17T12:53:23.664Z,58.48
2017-02-17T12:54:36.813Z,57.92
2017-02-17T12:55:49.949Z,56.29
2017-02-17T12:57:03.119Z,56.81
2017-02-17T12:58:16.289Z,57.2
2017-02-17T12:59:28.905Z,56.81
2017-02-17T13:00:42.254Z,55.54
2017-02-17T13:01:54.840Z,56.12
2017-02-17T13:03:06.873Z,55.63
2017-02-17T13:04:19.467Z,55.24
2017-02-17T13:05:32.840Z,54.98
2017-02-17T13:06:45.983Z,53.34
2017-02-17T13:07:59.164Z,52.42
2017-02-17T13:09:11.195Z,52.51
2017-02-17T13:10:23.783Z,51.05
2017-02-17T13:11:37.138Z,51.95
2017-02-17T13:12:50.328Z,51.83
2017-02-17T13:14:02.913Z,52.64
2017-02-17T13:15:15.495Z,53.03
2017-02-17T13:16:28.654Z,52.15
2017-02-17T13:17:41.812Z,51.07
2017-02-17T13:18:54.984Z,51.37
2017-02-17T13:20:08.142Z,51.95
2017-02-17T13:21:20.731Z,51.59
2017-02-17T13:22:47.322Z,52.08
2017-02-17T13:23:59.930Z,50.42
2017-02-17T13:25:13.069Z,51.1
2017-02-17T13:26:40.413Z,51.03
2017-02-17T13:27:53.560Z,50.15
2017-02-17T13:29:06.728Z,49.85
2017-02-17T13:30:19.351Z,49.85
2017-02-17T13:31:32.507Z,49.46
2017-02-17T13:32:45.962Z,50.15
2017-02-17T13:33:59.114Z,49.07
2017-02-17T13:35:11.173Z,48.87
2017-02-17T13:36:24.340Z,48.68
2017-02-17T13:37:37.687Z,48.11
2017-02-17T13:38:50.886Z,49.16
2017-02-17T13:40:18.057Z,49.16
2017-02-17T13:41:30.660Z,49.97
2017-02-17T13:42:43.071Z,49.68
2017-02-17T13:43:56.239Z,47.52
2017-02-17T13:45:09.385Z,48.99
2017-02-17T13:46:36.545Z,48.72
2017-02-17T13:48:03.897Z,47.08
2017-02-17T13:49:17.069Z,47.47
2017-02-17T13:50:30.236Z,47.37
2017-02-17T13:51:43.393Z,46.49
2017-02-17T13:52:56.545Z,46.78
2017-02-17T13:54:09.692Z,45.51
2017-02-17T13:55:36.310Z,44.82
2017-02-17T13:56:49.490Z,45.12
2017-02-17T13:58:02.691Z,45.21
2017-02-17T13:59:15.842Z,44.62
2017-02-17T14:00:29.016Z,44.45
2017-02-17T14:01:42.185Z,44.26
2017-02-17T14:02:55.347Z,42.71
2017-02-17T14:04:07.406Z,39.27
2017-02-17T14:05:20.029Z,40.35
2017-02-17T14:06:32.633Z,40.35
2017-02-17T14:07:45.774Z,40.43
2017-02-17T14:08:58.928Z,40.43
2017-02-17T14:10:12.420Z,41.02
2017-02-17T14:11:25.602Z,40.92
2017-02-17T14:12:38.803Z,41.14
2017-02-17T14:14:06.054Z,41.31
2017-02-17T14:15:18.951Z,41.19
2017-02-17T14:16:32.491Z,40.9
2017-02-17T14:17:46.027Z,40.43
2017-02-17T14:18:59.475Z,40.13
2017-02-17T14:20:12.793Z,40.53
2017-02-17T14:21:53.550Z,40.53
2017-02-17T14:23:07.122Z,40.74
2017-02-17T14:24:20.738Z,40.25
2017-02-17T14:27:02.052Z,40.35
2017-02-17T14:28:15.639Z,41.53
2017-02-17T14:29:29.621Z,41.19
2017-02-17T14:30:43.410Z,38.37
2017-02-17T14:31:56.825Z,37.29
2017-02-17T14:33:23.554Z,36.6
2017-02-17T14:34:36.838Z,36.52
2017-02-17T14:35:50.315Z,35.91
2017-02-17T14:37:03.605Z,35.54
2017-02-17T14:38:16.355Z,34.66
2017-02-17T14:39:29.631Z,33.28
2017-02-17T14:40:42.929Z,31.9
2017-02-17T14:41:55.941Z,30.93
2017-02-17T14:43:09.233Z,32.01
2017-02-17T14:44:22.534Z,32.01
2017-02-17T14:45:35.827Z,33.69
2017-02-17T14:46:49.327Z,33
2017-02-17T14:48:02.063Z,33.1
2017-02-17T14:49:14.218Z,32.62
2017-02-17T14:50:27.501Z,32.23
2017-02-17T14:51:40.803Z,32.74
2017-02-17T14:52:54.388Z,32.64
2017-02-17T14:54:07.103Z,32.34
2017-02-17T14:55:19.871Z,33.13
2017-02-17T14:56:33.175Z,33.8
2017-02-17T14:57:46.100Z,34.49
2017-02-17T14:58:58.854Z,35.46
2017-02-17T15:00:12.150Z,34.77
2017-02-17T15:01:24.748Z,34.58
2017-02-17T15:02:37.922Z,34.58
2017-02-17T15:03:51.430Z,34.47
2017-02-17T15:05:04.591Z,34.47
2017-02-17T15:06:17.745Z,34.2
2017-02-17T15:07:30.361Z,33.61
2017-02-17T15:08:43.758Z,34.2
2017-02-17T15:09:56.905Z,33.7
2017-02-17T15:11:10.066Z,33.72
2017-02-17T15:12:23.224Z,33.62
2017-02-17T15:13:35.835Z,34.22
2017-02-17T15:14:49.335Z,33.62
2017-02-17T15:16:01.941Z,33.43
2017-02-17T15:17:14.539Z,33.15
2017-02-17T15:18:27.681Z,33.34
2017-02-17T15:19:40.843Z,32.48
2017-02-17T15:20:53.987Z,32.38
2017-02-17T15:22:07.136Z,33.18
2017-02-17T15:23:20.287Z,34.54
2017-02-17T15:24:33.445Z,36.22
2017-02-17T15:25:46.611Z,36.1
2017-02-17T15:26:59.224Z,36.28
2017-02-17T15:28:26.389Z,37.24
2017-02-17T15:29:39.557Z,36.24
2017-02-17T15:30:52.147Z,37.13
2017-02-17T15:32:05.291Z,36.54
2017-02-17T15:33:18.433Z,35.75
2017-02-17T15:34:31.574Z,35.55
2017-02-17T15:37:12.174Z,35.95
2017-02-17T15:38:24.769Z,34.08
2017-02-17T15:41:05.449Z,33.67
2017-02-17T15:42:18.608Z,33.28
2017-02-17T15:43:31.776Z,34.15
2017-02-17T15:44:44.915Z,34.23
2017-02-17T15:45:58.072Z,34.62
2017-02-17T15:47:11.440Z,33.74
2017-02-17T15:48:24.592Z,33.05
2017-02-17T15:49:37.758Z,32.86
2017-02-17T15:50:50.369Z,33.23
2017-02-17T15:52:03.276Z,34.31
2017-02-17T15:53:15.348Z,35.1
2017-02-17T15:54:28.521Z,35
2017-02-17T15:55:41.714Z,35.21
2017-02-17T15:56:54.312Z,33.34
2017-02-17T15:58:07.454Z,34.41
2017-02-17T15:59:20.060Z,34.31
2017-02-17T16:00:33.197Z,34.51
2017-02-17T16:02:00.391Z,35.08
2017-02-17T16:03:13.795Z,36.16
2017-02-17T16:04:26.388Z,36.06
2017-02-17T16:05:39.542Z,36.74
2017-02-17T16:06:52.692Z,36.55
2017-02-17T16:08:06.047Z,35.96
2017-02-17T16:09:19.207Z,36.25
2017-02-17T16:10:32.368Z,37.04
2017-02-17T16:11:45.530Z,37.63
2017-02-17T16:13:12.131Z,38.12
2017-02-17T16:14:25.273Z,38.02